sensor_id;sensor_type;location;lat;lon;timestamp;temperature;humidity
73643;DHT22;61938;48.652;9.292;2024-02-23T00:01:47;7.70;99.90
73643;DHT22;61938;48.652;9.292;2024-02-23T00:04:13;7.70;99.90
73643;DHT22;61938;48.652;9.292;2024-02-23T00:06:39;7.70;99.90
73643;DHT22;61938;48.652;9.292;2024-02-23T00:09:04;7.70;99.90
73643;DHT22;61938;48.652;9.292;2024-02-23T00:11:31;7.60;99.90
73643;DHT22;61938;48.652;9.292;2024-02-23T00:13:58;7.60;99.90
73643;DHT22;61938;48.652;9.292;2024-02-23T00:16:24;7.60;99.90
73643;DHT22;61938;48.652;9.292;2024-02-23T00:18:49;7.50;99.90
73643;DHT22;61938;48.652;9.292;2024-02-23T00:21:15;7.50;99.90
73643;DHT22;61938;48.652;9.292;2024-02-23T00:23:40;7.50;99.90
73643;DHT22;61938;48.652;9.292;2024-02-23T00:26:06;7.40;99.90
73643;DHT22;61938;48.652;9.292;2024-02-23T00:28:31;7.40;99.90
73643;DHT22;61938;48.652;9.292;2024-02-23T00:30:57;7.40;99.90
73643;DHT22;61938;48.652;9.292;2024-02-23T00:33:22;7.30;99.90
73643;DHT22;61938;48.652;9.292;2024-02-23T00:35:48;7.30;99.90
73643;DHT22;61938;48.652;9.292;2024-02-23T00:38:14;7.30;99.90
73643;DHT22;61938;48.652;9.292;2024-02-23T00:40:39;7.30;99.90
73643;DHT22;61938;48.652;9.292;2024-02-23T00:43:05;7.30;99.90
73643;DHT22;61938;48.652;9.292;2024-02-23T00:45:31;7.20;99.90
73643;DHT22;61938;48.652;9.292;2024-02-23T00:47:56;7.20;99.90
73643;DHT22;61938;48.652;9.292;2024-02-23T00:50:24;7.20;99.90
73643;DHT22;61938;48.652;9.292;2024-02-23T00:52:52;7.20;99.90
73643;DHT22;61938;48.652;9.292;2024-02-23T00:55:18;7.20;99.90
73643;DHT22;61938;48.652;9.292;2024-02-23T00:57:44;7.20;99.90
73643;DHT22;61938;48.652;9.292;2024-02-23T01:00:11;7.20;99.90
73643;DHT22;61938;48.652;9.292;2024-02-23T01:02:37;7.20;99.90
73643;DHT22;61938;48.652;9.292;2024-02-23T01:05:04;7.20;99.90
73643;DHT22;61938;48.652;9.292;2024-02-23T01:07:29;7.10;99.90
73643;DHT22;61938;48.652;9.292;2024-02-23T01:09:55;7.10;99.90
73643;DHT22;61938;48.652;9.292;2024-02-23T01:12:21;7.00;99.90
73643;DHT22;61938;48.652;9.292;2024-02-23T01:14:47;7.00;99.90
73643;DHT22;61938;48.652;9.292;2024-02-23T01:17:14;7.00;99.90
73643;DHT22;61938;48.652;9.292;2024-02-23T01:19:41;7.00;99.90
73643;DHT22;61938;48.652;9.292;2024-02-23T01:22:07;6.90;99.90
73643;DHT22;61938;48.652;9.292;2024-02-23T01:24:33;6.90;99.90
73643;DHT22;61938;48.652;9.292;2024-02-23T01:26:58;6.80;99.90
73643;DHT22;61938;48.652;9.292;2024-02-23T01:29:26;6.80;99.90
73643;DHT22;61938;48.652;9.292;2024-02-23T01:31:51;6.80;99.90
73643;DHT22;61938;48.652;9.292;2024-02-23T01:34:17;6.70;99.90
73643;DHT22;61938;48.652;9.292;2024-02-23T01:36:43;6.60;99.90
73643;DHT22;61938;48.652;9.292;2024-02-23T01:39:09;6.60;99.90
73643;DHT22;61938;48.652;9.292;2024-02-23T01:41:35;6.50;99.90
73643;DHT22;61938;48.652;9.292;2024-02-23T01:44:00;6.50;99.90
73643;DHT22;61938;48.652;9.292;2024-02-23T01:46:26;6.50;99.90
73643;DHT22;61938;48.652;9.292;2024-02-23T01:48:52;6.40;99.90
73643;DHT22;61938;48.652;9.292;2024-02-23T01:51:17;6.40;99.90
73643;DHT22;61938;48.652;9.292;2024-02-23T01:53:43;6.40;99.90
73643;DHT22;61938;48.652;9.292;2024-02-23T01:56:09;6.30;99.90
73643;DHT22;61938;48.652;9.292;2024-02-23T01:58:37;6.30;99.90
73643;DHT22;61938;48.652;9.292;2024-02-23T02:01:03;6.20;99.90
73643;DHT22;61938;48.652;9.292;2024-02-23T02:03:28;6.20;99.90
73643;DHT22;61938;48.652;9.292;2024-02-23T02:05:55;6.20;99.90
73643;DHT22;61938;48.652;9.292;2024-02-23T02:08:24;6.10;99.90
73643;DHT22;61938;48.652;9.292;2024-02-23T02:10:50;6.10;99.90
73643;DHT22;61938;48.652;9.292;2024-02-23T02:13:16;6.10;99.90
73643;DHT22;61938;48.652;9.292;2024-02-23T02:15:41;6.00;99.90
73643;DHT22;61938;48.652;9.292;2024-02-23T02:18:09;6.00;99.90
73643;DHT22;61938;48.652;9.292;2024-02-23T02:20:36;6.00;99.90
73643;DHT22;61938;48.652;9.292;2024-02-23T02:23:02;5.90;99.90
73643;DHT22;61938;48.652;9.292;2024-02-23T02:25:27;5.90;99.90
73643;DHT22;61938;48.652;9.292;2024-02-23T02:27:53;5.90;99.90
73643;DHT22;61938;48.652;9.292;2024-02-23T02:30:18;5.90;99.90
73643;DHT22;61938;48.652;9.292;2024-02-23T02:32:45;5.90;99.90
73643;DHT22;61938;48.652;9.292;2024-02-23T02:35:11;5.80;99.90
73643;DHT22;61938;48.652;9.292;2024-02-23T02:37:37;5.80;99.90
73643;DHT22;61938;48.652;9.292;2024-02-23T02:40:03;5.80;99.90
73643;DHT22;61938;48.652;9.292;2024-02-23T02:42:29;5.80;99.90
73643;DHT22;61938;48.652;9.292;2024-02-23T02:44:54;5.80;99.90
73643;DHT22;61938;48.652;9.292;2024-02-23T02:47:20;5.70;99.90
73643;DHT22;61938;48.652;9.292;2024-02-23T02:49:45;5.70;99.90
73643;DHT22;61938;48.652;9.292;2024-02-23T02:52:11;5.70;99.90
73643;DHT22;61938;48.652;9.292;2024-02-23T02:54:37;5.70;99.90
73643;DHT22;61938;48.652;9.292;2024-02-23T02:57:02;5.70;99.90
73643;DHT22;61938;48.652;9.292;2024-02-23T02:59:28;5.70;99.90
73643;DHT22;61938;48.652;9.292;2024-02-23T03:01:53;5.70;99.90
73643;DHT22;61938;48.652;9.292;2024-02-23T03:04:19;5.70;99.90
73643;DHT22;61938;48.652;9.292;2024-02-23T03:06:45;5.70;99.90
73643;DHT22;61938;48.652;9.292;2024-02-23T03:09:25;5.70;99.90
73643;DHT22;61938;48.652;9.292;2024-02-23T03:11:51;5.60;99.90
73643;DHT22;61938;48.652;9.292;2024-02-23T03:14:16;5.70;99.90
73643;DHT22;61938;48.652;9.292;2024-02-23T03:16:43;5.60;99.90
73643;DHT22;61938;48.652;9.292;2024-02-23T03:19:09;5.60;99.90
73643;DHT22;61938;48.652;9.292;2024-02-23T03:21:34;5.60;99.90
73643;DHT22;61938;48.652;9.292;2024-02-23T03:24:00;5.60;99.90
73643;DHT22;61938;48.652;9.292;2024-02-23T03:26:25;5.60;99.90
73643;DHT22;61938;48.652;9.292;2024-02-23T03:28:51;5.60;99.90
73643;DHT22;61938;48.652;9.292;2024-02-23T03:31:16;5.60;99.90
73643;DHT22;61938;48.652;9.292;2024-02-23T03:33:42;5.60;99.90
73643;DHT22;61938;48.652;9.292;2024-02-23T03:36:08;5.60;99.90
73643;DHT22;61938;48.652;9.292;2024-02-23T03:38:33;5.60;99.90
73643;DHT22;61938;48.652;9.292;2024-02-23T03:40:59;5.50;99.90
73643;DHT22;61938;48.652;9.292;2024-02-23T03:43:25;5.60;99.90
73643;DHT22;61938;48.652;9.292;2024-02-23T03:45:51;5.60;99.90
73643;DHT22;61938;48.652;9.292;2024-02-23T03:48:16;5.50;99.90
73643;DHT22;61938;48.652;9.292;2024-02-23T03:50:42;5.50;99.90
73643;DHT22;61938;48.652;9.292;2024-02-23T03:53:07;5.50;99.90
73643;DHT22;61938;48.652;9.292;2024-02-23T03:55:33;5.50;99.90
73643;DHT22;61938;48.652;9.292;2024-02-23T03:57:58;5.50;99.90
73643;DHT22;61938;48.652;9.292;2024-02-23T04:00:24;5.50;99.90
73643;DHT22;61938;48.652;9.292;2024-02-23T04:02:50;5.50;99.90
73643;DHT22;61938;48.652;9.292;2024-02-23T04:05:16;5.50;99.90
73643;DHT22;61938;48.652;9.292;2024-02-23T04:07:41;5.50;99.90
73643;DHT22;61938;48.652;9.292;2024-02-23T04:10:07;5.50;99.90
73643;DHT22;61938;48.652;9.292;2024-02-23T04:12:33;5.50;99.90
73643;DHT22;61938;48.652;9.292;2024-02-23T04:14:58;5.50;99.90
73643;DHT22;61938;48.652;9.292;2024-02-23T04:17:24;5.50;99.90
73643;DHT22;61938;48.652;9.292;2024-02-23T04:19:51;5.50;99.90
73643;DHT22;61938;48.652;9.292;2024-02-23T04:22:16;5.50;99.90
73643;DHT22;61938;48.652;9.292;2024-02-23T04:24:42;5.50;99.90
73643;DHT22;61938;48.652;9.292;2024-02-23T04:27:08;5.50;99.90
73643;DHT22;61938;48.652;9.292;2024-02-23T04:29:34;5.50;99.90
73643;DHT22;61938;48.652;9.292;2024-02-23T04:32:00;5.50;99.90
73643;DHT22;61938;48.652;9.292;2024-02-23T04:34:27;5.50;99.90
73643;DHT22;61938;48.652;9.292;2024-02-23T04:36:52;5.40;99.90
73643;DHT22;61938;48.652;9.292;2024-02-23T04:39:18;5.40;99.90
73643;DHT22;61938;48.652;9.292;2024-02-23T04:41:55;5.40;99.90
73643;DHT22;61938;48.652;9.292;2024-02-23T04:44:21;5.40;99.90
73643;DHT22;61938;48.652;9.292;2024-02-23T04:46:46;5.40;99.90
73643;DHT22;61938;48.652;9.292;2024-02-23T04:49:12;5.40;99.90
73643;DHT22;61938;48.652;9.292;2024-02-23T04:51:37;5.40;99.90
73643;DHT22;61938;48.652;9.292;2024-02-23T04:54:04;5.30;99.90
73643;DHT22;61938;48.652;9.292;2024-02-23T04:56:29;5.30;99.90
73643;DHT22;61938;48.652;9.292;2024-02-23T04:58:55;5.30;99.90
73643;DHT22;61938;48.652;9.292;2024-02-23T05:01:20;5.20;99.90
73643;DHT22;61938;48.652;9.292;2024-02-23T05:03:46;5.20;99.90
73643;DHT22;61938;48.652;9.292;2024-02-23T05:06:11;5.20;99.90
73643;DHT22;61938;48.652;9.292;2024-02-23T05:08:38;5.20;99.90
73643;DHT22;61938;48.652;9.292;2024-02-23T05:11:03;5.20;99.90
73643;DHT22;61938;48.652;9.292;2024-02-23T05:13:29;5.20;99.90
73643;DHT22;61938;48.652;9.292;2024-02-23T05:15:55;5.10;99.90
73643;DHT22;61938;48.652;9.292;2024-02-23T05:18:22;5.10;99.90
73643;DHT22;61938;48.652;9.292;2024-02-23T05:20:47;5.10;99.90
73643;DHT22;61938;48.652;9.292;2024-02-23T05:23:13;5.10;99.90
73643;DHT22;61938;48.652;9.292;2024-02-23T05:25:41;5.20;99.90
73643;DHT22;61938;48.652;9.292;2024-02-23T05:28:07;5.10;99.90
73643;DHT22;61938;48.652;9.292;2024-02-23T05:30:32;5.10;99.90
73643;DHT22;61938;48.652;9.292;2024-02-23T05:32:58;5.10;99.90
73643;DHT22;61938;48.652;9.292;2024-02-23T05:35:24;5.10;99.90
73643;DHT22;61938;48.652;9.292;2024-02-23T05:37:50;5.10;99.90
73643;DHT22;61938;48.652;9.292;2024-02-23T05:40:16;5.00;99.90
73643;DHT22;61938;48.652;9.292;2024-02-23T05:42:41;5.00;99.90
73643;DHT22;61938;48.652;9.292;2024-02-23T05:45:08;5.00;99.90
73643;DHT22;61938;48.652;9.292;2024-02-23T05:47:37;5.00;99.90
73643;DHT22;61938;48.652;9.292;2024-02-23T05:50:03;5.00;99.90
73643;DHT22;61938;48.652;9.292;2024-02-23T05:52:31;5.00;99.90
73643;DHT22;61938;48.652;9.292;2024-02-23T05:54:57;4.90;99.90
73643;DHT22;61938;48.652;9.292;2024-02-23T05:57:22;4.90;99.90
73643;DHT22;61938;48.652;9.292;2024-02-23T05:59:48;4.90;99.90
73643;DHT22;61938;48.652;9.292;2024-02-23T06:02:13;4.90;99.90
73643;DHT22;61938;48.652;9.292;2024-02-23T06:04:40;4.90;99.90
73643;DHT22;61938;48.652;9.292;2024-02-23T06:07:06;4.90;99.90
73643;DHT22;61938;48.652;9.292;2024-02-23T06:09:31;4.90;99.90
73643;DHT22;61938;48.652;9.292;2024-02-23T06:11:57;4.90;99.90
73643;DHT22;61938;48.652;9.292;2024-02-23T06:14:22;4.90;99.90
73643;DHT22;61938;48.652;9.292;2024-02-23T06:16:49;4.90;99.90
73643;DHT22;61938;48.652;9.292;2024-02-23T06:19:15;4.90;99.90
73643;DHT22;61938;48.652;9.292;2024-02-23T06:21:40;4.80;99.90
73643;DHT22;61938;48.652;9.292;2024-02-23T06:24:06;4.80;99.90
73643;DHT22;61938;48.652;9.292;2024-02-23T06:26:34;4.80;99.90
73643;DHT22;61938;48.652;9.292;2024-02-23T06:28:59;4.80;99.90
73643;DHT22;61938;48.652;9.292;2024-02-23T06:31:25;4.80;99.90
73643;DHT22;61938;48.652;9.292;2024-02-23T06:33:51;4.80;99.90
73643;DHT22;61938;48.652;9.292;2024-02-23T06:36:17;4.80;99.90
73643;DHT22;61938;48.652;9.292;2024-02-23T06:38:44;4.80;99.90
73643;DHT22;61938;48.652;9.292;2024-02-23T06:41:10;4.80;99.90
73643;DHT22;61938;48.652;9.292;2024-02-23T06:43:36;4.80;99.90
73643;DHT22;61938;48.652;9.292;2024-02-23T06:46:07;4.70;99.90
73643;DHT22;61938;48.652;9.292;2024-02-23T06:48:33;4.70;99.90
73643;DHT22;61938;48.652;9.292;2024-02-23T06:50:59;4.70;99.90
73643;DHT22;61938;48.652;9.292;2024-02-23T06:53:25;4.70;99.90
73643;DHT22;61938;48.652;9.292;2024-02-23T06:55:50;4.70;99.90
73643;DHT22;61938;48.652;9.292;2024-02-23T06:58:16;4.70;99.90
73643;DHT22;61938;48.652;9.292;2024-02-23T07:00:42;4.70;99.90
73643;DHT22;61938;48.652;9.292;2024-02-23T07:03:07;4.70;99.90
73643;DHT22;61938;48.652;9.292;2024-02-23T07:05:33;4.70;99.90
73643;DHT22;61938;48.652;9.292;2024-02-23T07:08:01;4.70;99.90
73643;DHT22;61938;48.652;9.292;2024-02-23T07:10:26;4.70;99.90
73643;DHT22;61938;48.652;9.292;2024-02-23T07:12:52;4.70;99.90
73643;DHT22;61938;48.652;9.292;2024-02-23T07:15:22;4.70;99.90
73643;DHT22;61938;48.652;9.292;2024-02-23T07:17:47;4.60;99.90
73643;DHT22;61938;48.652;9.292;2024-02-23T07:20:13;4.60;99.90
73643;DHT22;61938;48.652;9.292;2024-02-23T07:22:39;4.70;99.90
73643;DHT22;61938;48.652;9.292;2024-02-23T07:25:07;4.70;99.90
73643;DHT22;61938;48.652;9.292;2024-02-23T07:27:33;4.70;99.90
73643;DHT22;61938;48.652;9.292;2024-02-23T07:29:59;4.70;99.90
73643;DHT22;61938;48.652;9.292;2024-02-23T07:32:24;4.70;99.90
73643;DHT22;61938;48.652;9.292;2024-02-23T07:34:50;4.70;99.90
73643;DHT22;61938;48.652;9.292;2024-02-23T07:37:16;4.70;99.90
73643;DHT22;61938;48.652;9.292;2024-02-23T07:39:41;4.70;99.90
73643;DHT22;61938;48.652;9.292;2024-02-23T07:42:07;4.70;99.90
73643;DHT22;61938;48.652;9.292;2024-02-23T07:44:35;4.70;99.90
73643;DHT22;61938;48.652;9.292;2024-02-23T07:47:00;4.70;99.90
73643;DHT22;61938;48.652;9.292;2024-02-23T07:49:26;4.70;99.90
73643;DHT22;61938;48.652;9.292;2024-02-23T07:51:53;4.70;99.90
73643;DHT22;61938;48.652;9.292;2024-02-23T07:54:19;4.70;99.90
73643;DHT22;61938;48.652;9.292;2024-02-23T07:56:45;4.70;99.90
73643;DHT22;61938;48.652;9.292;2024-02-23T07:59:10;4.70;99.90
73643;DHT22;61938;48.652;9.292;2024-02-23T08:01:36;4.70;99.90
73643;DHT22;61938;48.652;9.292;2024-02-23T08:04:01;4.70;99.90
73643;DHT22;61938;48.652;9.292;2024-02-23T08:06:28;4.80;99.90
73643;DHT22;61938;48.652;9.292;2024-02-23T08:08:54;4.80;99.90
73643;DHT22;61938;48.652;9.292;2024-02-23T08:11:20;4.80;99.90
73643;DHT22;61938;48.652;9.292;2024-02-23T08:13:45;4.80;99.90
73643;DHT22;61938;48.652;9.292;2024-02-23T08:16:11;4.80;99.90
73643;DHT22;61938;48.652;9.292;2024-02-23T08:18:36;4.80;99.90
73643;DHT22;61938;48.652;9.292;2024-02-23T08:21:02;4.80;99.90
73643;DHT22;61938;48.652;9.292;2024-02-23T08:23:29;4.80;99.90
73643;DHT22;61938;48.652;9.292;2024-02-23T08:25:55;4.80;99.90
73643;DHT22;61938;48.652;9.292;2024-02-23T08:28:25;4.80;99.90
73643;DHT22;61938;48.652;9.292;2024-02-23T08:30:51;4.80;99.90
73643;DHT22;61938;48.652;9.292;2024-02-23T08:33:16;4.80;99.90
73643;DHT22;61938;48.652;9.292;2024-02-23T08:35:42;4.80;99.90
73643;DHT22;61938;48.652;9.292;2024-02-23T08:38:08;4.80;99.90
73643;DHT22;61938;48.652;9.292;2024-02-23T08:40:34;4.90;99.90
73643;DHT22;61938;48.652;9.292;2024-02-23T08:43:00;4.90;99.90
73643;DHT22;61938;48.652;9.292;2024-02-23T08:45:25;4.90;99.90
73643;DHT22;61938;48.652;9.292;2024-02-23T08:47:51;4.90;99.90
73643;DHT22;61938;48.652;9.292;2024-02-23T08:50:16;4.90;99.90
73643;DHT22;61938;48.652;9.292;2024-02-23T08:52:42;4.90;99.90
73643;DHT22;61938;48.652;9.292;2024-02-23T08:55:08;4.90;99.90
73643;DHT22;61938;48.652;9.292;2024-02-23T08:57:33;4.90;99.90
73643;DHT22;61938;48.652;9.292;2024-02-23T08:59:59;4.90;99.90
73643;DHT22;61938;48.652;9.292;2024-02-23T09:02:25;4.90;99.90
73643;DHT22;61938;48.652;9.292;2024-02-23T09:04:50;4.90;99.90
73643;DHT22;61938;48.652;9.292;2024-02-23T09:07:16;4.90;99.90
73643;DHT22;61938;48.652;9.292;2024-02-23T09:09:45;5.00;99.90
73643;DHT22;61938;48.652;9.292;2024-02-23T09:12:11;5.00;99.90
73643;DHT22;61938;48.652;9.292;2024-02-23T09:14:36;5.00;99.90
73643;DHT22;61938;48.652;9.292;2024-02-23T09:17:04;5.00;99.90
73643;DHT22;61938;48.652;9.292;2024-02-23T09:19:30;5.00;99.90
73643;DHT22;61938;48.652;9.292;2024-02-23T09:21:55;5.00;99.90
73643;DHT22;61938;48.652;9.292;2024-02-23T09:24:21;5.10;99.90
73643;DHT22;61938;48.652;9.292;2024-02-23T09:26:47;5.10;99.90
73643;DHT22;61938;48.652;9.292;2024-02-23T09:29:13;5.10;99.90
73643;DHT22;61938;48.652;9.292;2024-02-23T09:31:38;5.10;99.90
73643;DHT22;61938;48.652;9.292;2024-02-23T09:34:04;5.10;99.90
73643;DHT22;61938;48.652;9.292;2024-02-23T09:36:29;5.10;99.90
73643;DHT22;61938;48.652;9.292;2024-02-23T09:38:55;5.10;99.90
73643;DHT22;61938;48.652;9.292;2024-02-23T09:41:22;5.20;99.90
73643;DHT22;61938;48.652;9.292;2024-02-23T09:43:48;5.20;99.90
73643;DHT22;61938;48.652;9.292;2024-02-23T09:46:15;5.20;99.90
73643;DHT22;61938;48.652;9.292;2024-02-23T09:48:45;5.20;99.90
73643;DHT22;61938;48.652;9.292;2024-02-23T09:51:15;5.20;99.90
73643;DHT22;61938;48.652;9.292;2024-02-23T09:53:41;5.20;99.90
73643;DHT22;61938;48.652;9.292;2024-02-23T09:56:08;5.20;99.90
73643;DHT22;61938;48.652;9.292;2024-02-23T09:58:36;5.30;99.90
73643;DHT22;61938;48.652;9.292;2024-02-23T10:01:03;5.30;99.90
73643;DHT22;61938;48.652;9.292;2024-02-23T10:03:29;5.30;99.90
73643;DHT22;61938;48.652;9.292;2024-02-23T10:05:59;5.40;99.90
73643;DHT22;61938;48.652;9.292;2024-02-23T10:08:28;5.40;99.90
73643;DHT22;61938;48.652;9.292;2024-02-23T10:10:54;5.40;99.90
73643;DHT22;61938;48.652;9.292;2024-02-23T10:13:21;5.40;99.90
73643;DHT22;61938;48.652;9.292;2024-02-23T10:15:48;5.40;99.90
73643;DHT22;61938;48.652;9.292;2024-02-23T10:18:13;5.50;99.90
73643;DHT22;61938;48.652;9.292;2024-02-23T10:20:40;5.50;99.90
73643;DHT22;61938;48.652;9.292;2024-02-23T10:23:07;5.50;99.90
73643;DHT22;61938;48.652;9.292;2024-02-23T10:25:38;5.50;99.90
73643;DHT22;61938;48.652;9.292;2024-02-23T10:28:05;5.50;99.90
73643;DHT22;61938;48.652;9.292;2024-02-23T10:30:31;5.50;99.90
73643;DHT22;61938;48.652;9.292;2024-02-23T10:32:57;5.60;99.90
73643;DHT22;61938;48.652;9.292;2024-02-23T10:35:24;5.60;99.90
73643;DHT22;61938;48.652;9.292;2024-02-23T10:37:51;5.60;99.90
73643;DHT22;61938;48.652;9.292;2024-02-23T10:40:19;5.60;99.90
73643;DHT22;61938;48.652;9.292;2024-02-23T10:42:46;5.60;99.90
73643;DHT22;61938;48.652;9.292;2024-02-23T10:45:17;5.70;99.90
73643;DHT22;61938;48.652;9.292;2024-02-23T10:47:43;5.70;99.90
73643;DHT22;61938;48.652;9.292;2024-02-23T10:50:09;5.70;99.90
73643;DHT22;61938;48.652;9.292;2024-02-23T10:52:35;5.70;99.90
73643;DHT22;61938;48.652;9.292;2024-02-23T10:55:02;5.70;99.90
73643;DHT22;61938;48.652;9.292;2024-02-23T10:57:31;5.70;99.90
73643;DHT22;61938;48.652;9.292;2024-02-23T10:59:59;5.70;99.90
73643;DHT22;61938;48.652;9.292;2024-02-23T11:02:27;5.80;99.90
73643;DHT22;61938;48.652;9.292;2024-02-23T11:04:55;5.80;99.90
73643;DHT22;61938;48.652;9.292;2024-02-23T11:07:22;5.80;99.90
73643;DHT22;61938;48.652;9.292;2024-02-23T11:10:08;5.90;99.90
73643;DHT22;61938;48.652;9.292;2024-02-23T11:12:36;5.90;99.90
73643;DHT22;61938;48.652;9.292;2024-02-23T11:15:02;5.90;99.90
73643;DHT22;61938;48.652;9.292;2024-02-23T11:17:30;5.90;99.90
73643;DHT22;61938;48.652;9.292;2024-02-23T11:19:56;5.90;99.90
73643;DHT22;61938;48.652;9.292;2024-02-23T11:22:32;6.00;99.90
73643;DHT22;61938;48.652;9.292;2024-02-23T11:25:05;6.00;99.90
73643;DHT22;61938;48.652;9.292;2024-02-23T11:27:32;6.00;99.90
73643;DHT22;61938;48.652;9.292;2024-02-23T11:30:06;6.00;99.90
73643;DHT22;61938;48.652;9.292;2024-02-23T11:32:47;6.00;99.90
73643;DHT22;61938;48.652;9.292;2024-02-23T11:35:14;6.10;99.90
73643;DHT22;61938;48.652;9.292;2024-02-23T11:37:54;6.00;99.90
73643;DHT22;61938;48.652;9.292;2024-02-23T11:40:28;6.10;99.90
73643;DHT22;61938;48.652;9.292;2024-02-23T11:42:57;6.10;99.90
73643;DHT22;61938;48.652;9.292;2024-02-23T11:45:24;6.10;99.90
73643;DHT22;61938;48.652;9.292;2024-02-23T11:47:50;6.10;99.90
73643;DHT22;61938;48.652;9.292;2024-02-23T11:50:15;6.20;99.90
73643;DHT22;61938;48.652;9.292;2024-02-23T11:52:45;6.20;99.90
73643;DHT22;61938;48.652;9.292;2024-02-23T11:55:10;6.20;99.90
73643;DHT22;61938;48.652;9.292;2024-02-23T11:57:36;6.20;99.90
73643;DHT22;61938;48.652;9.292;2024-02-23T12:00:04;6.30;99.90
73643;DHT22;61938;48.652;9.292;2024-02-23T12:02:32;6.30;99.90
73643;DHT22;61938;48.652;9.292;2024-02-23T12:04:57;6.30;99.90
73643;DHT22;61938;48.652;9.292;2024-02-23T12:07:23;6.30;99.90
73643;DHT22;61938;48.652;9.292;2024-02-23T12:09:49;6.30;99.90
73643;DHT22;61938;48.652;9.292;2024-02-23T12:12:15;6.40;99.90
73643;DHT22;61938;48.652;9.292;2024-02-23T12:14:40;6.40;99.90
73643;DHT22;61938;48.652;9.292;2024-02-23T12:17:08;6.40;99.90
73643;DHT22;61938;48.652;9.292;2024-02-23T12:19:40;6.40;99.90
73643;DHT22;61938;48.652;9.292;2024-02-23T12:22:06;6.50;99.90
73643;DHT22;61938;48.652;9.292;2024-02-23T12:24:32;6.50;99.90
73643;DHT22;61938;48.652;9.292;2024-02-23T12:26:58;6.50;99.90
73643;DHT22;61938;48.652;9.292;2024-02-23T12:29:24;6.50;99.90
73643;DHT22;61938;48.652;9.292;2024-02-23T12:31:49;6.50;99.90
73643;DHT22;61938;48.652;9.292;2024-02-23T12:34:15;6.50;99.90
73643;DHT22;61938;48.652;9.292;2024-02-23T12:36:41;6.50;99.90
73643;DHT22;61938;48.652;9.292;2024-02-23T12:39:07;6.60;99.90
73643;DHT22;61938;48.652;9.292;2024-02-23T12:41:32;6.60;99.90
73643;DHT22;61938;48.652;9.292;2024-02-23T12:43:58;6.70;99.90
73643;DHT22;61938;48.652;9.292;2024-02-23T12:46:24;6.60;99.90
73643;DHT22;61938;48.652;9.292;2024-02-23T12:48:50;6.70;99.90
73643;DHT22;61938;48.652;9.292;2024-02-23T12:51:15;6.70;99.90
73643;DHT22;61938;48.652;9.292;2024-02-23T12:53:42;6.70;99.90
73643;DHT22;61938;48.652;9.292;2024-02-23T12:56:09;6.80;99.90
73643;DHT22;61938;48.652;9.292;2024-02-23T12:58:37;6.80;99.90
73643;DHT22;61938;48.652;9.292;2024-02-23T13:01:03;6.80;99.90
73643;DHT22;61938;48.652;9.292;2024-02-23T13:03:29;6.80;99.90
73643;DHT22;61938;48.652;9.292;2024-02-23T13:05:58;6.80;99.90
73643;DHT22;61938;48.652;9.292;2024-02-23T13:08:24;6.90;99.90
73643;DHT22;61938;48.652;9.292;2024-02-23T13:10:50;6.90;99.90
73643;DHT22;61938;48.652;9.292;2024-02-23T13:13:16;6.90;99.90
73643;DHT22;61938;48.652;9.292;2024-02-23T13:15:46;7.00;99.90
73643;DHT22;61938;48.652;9.292;2024-02-23T13:18:12;7.00;99.90
73643;DHT22;61938;48.652;9.292;2024-02-23T13:20:38;7.00;99.90
73643;DHT22;61938;48.652;9.292;2024-02-23T13:23:05;7.00;99.90
73643;DHT22;61938;48.652;9.292;2024-02-23T13:25:32;7.10;99.90
73643;DHT22;61938;48.652;9.292;2024-02-23T13:27:58;7.10;99.90
73643;DHT22;61938;48.652;9.292;2024-02-23T13:30:23;7.10;99.90
73643;DHT22;61938;48.652;9.292;2024-02-23T13:32:49;7.10;99.90
73643;DHT22;61938;48.652;9.292;2024-02-23T13:35:15;7.10;99.90
73643;DHT22;61938;48.652;9.292;2024-02-23T13:37:42;7.40;99.90
73643;DHT22;61938;48.652;9.292;2024-02-23T13:40:09;7.20;99.90
73643;DHT22;61938;48.652;9.292;2024-02-23T13:42:35;7.20;99.90
73643;DHT22;61938;48.652;9.292;2024-02-23T13:45:01;7.20;99.90
73643;DHT22;61938;48.652;9.292;2024-02-23T13:47:26;7.20;99.90
73643;DHT22;61938;48.652;9.292;2024-02-23T13:49:52;7.20;99.90
73643;DHT22;61938;48.652;9.292;2024-02-23T13:52:17;7.20;99.90
73643;DHT22;61938;48.652;9.292;2024-02-23T13:54:43;7.20;99.90
73643;DHT22;61938;48.652;9.292;2024-02-23T13:57:08;7.20;99.90
73643;DHT22;61938;48.652;9.292;2024-02-23T13:59:34;7.20;99.90
73643;DHT22;61938;48.652;9.292;2024-02-23T14:02:00;7.30;99.90
73643;DHT22;61938;48.652;9.292;2024-02-23T14:04:25;7.20;99.90
73643;DHT22;61938;48.652;9.292;2024-02-23T14:06:51;7.30;99.90
73643;DHT22;61938;48.652;9.292;2024-02-23T14:09:17;7.30;99.90
73643;DHT22;61938;48.652;9.292;2024-02-23T14:11:42;7.30;99.90
73643;DHT22;61938;48.652;9.292;2024-02-23T14:14:08;7.30;99.90
73643;DHT22;61938;48.652;9.292;2024-02-23T14:16:33;7.30;99.90
73643;DHT22;61938;48.652;9.292;2024-02-23T14:19:00;7.30;99.90
73643;DHT22;61938;48.652;9.292;2024-02-23T14:21:25;7.30;99.90
73643;DHT22;61938;48.652;9.292;2024-02-23T14:23:51;7.30;99.90
73643;DHT22;61938;48.652;9.292;2024-02-23T14:26:17;7.30;99.90
73643;DHT22;61938;48.652;9.292;2024-02-23T14:28:42;7.30;99.90
73643;DHT22;61938;48.652;9.292;2024-02-23T14:31:08;7.30;99.90
73643;DHT22;61938;48.652;9.292;2024-02-23T14:33:34;7.30;99.90
73643;DHT22;61938;48.652;9.292;2024-02-23T14:35:59;7.40;99.90
73643;DHT22;61938;48.652;9.292;2024-02-23T14:38:25;7.40;99.90
73643;DHT22;61938;48.652;9.292;2024-02-23T14:40:51;7.40;99.90
73643;DHT22;61938;48.652;9.292;2024-02-23T14:43:16;7.40;99.90
73643;DHT22;61938;48.652;9.292;2024-02-23T14:45:42;7.40;99.90
73643;DHT22;61938;48.652;9.292;2024-02-23T14:48:07;7.40;99.90
73643;DHT22;61938;48.652;9.292;2024-02-23T14:50:33;7.50;99.90
73643;DHT22;61938;48.652;9.292;2024-02-23T14:52:59;7.50;99.90
73643;DHT22;61938;48.652;9.292;2024-02-23T14:55:24;7.50;99.90
73643;DHT22;61938;48.652;9.292;2024-02-23T14:57:50;7.50;99.90
73643;DHT22;61938;48.652;9.292;2024-02-23T15:00:15;7.50;99.90
73643;DHT22;61938;48.652;9.292;2024-02-23T15:02:41;7.50;99.90
73643;DHT22;61938;48.652;9.292;2024-02-23T15:05:07;7.50;99.90
73643;DHT22;61938;48.652;9.292;2024-02-23T15:07:33;7.50;99.90
73643;DHT22;61938;48.652;9.292;2024-02-23T15:10:00;7.50;99.90
73643;DHT22;61938;48.652;9.292;2024-02-23T15:12:31;7.60;99.90
73643;DHT22;61938;48.652;9.292;2024-02-23T15:14:56;7.60;99.90
73643;DHT22;61938;48.652;9.292;2024-02-23T15:17:22;7.60;99.90
73643;DHT22;61938;48.652;9.292;2024-02-23T15:19:47;7.60;99.90
73643;DHT22;61938;48.652;9.292;2024-02-23T15:22:13;7.60;99.90
73643;DHT22;61938;48.652;9.292;2024-02-23T15:24:41;7.60;99.90
73643;DHT22;61938;48.652;9.292;2024-02-23T15:27:08;7.60;99.90
73643;DHT22;61938;48.652;9.292;2024-02-23T15:29:34;7.60;99.90
73643;DHT22;61938;48.652;9.292;2024-02-23T15:32:00;7.60;99.90
73643;DHT22;61938;48.652;9.292;2024-02-23T15:34:26;7.60;99.90
73643;DHT22;61938;48.652;9.292;2024-02-23T15:36:51;7.60;99.90
73643;DHT22;61938;48.652;9.292;2024-02-23T15:39:17;7.60;99.90